createdAt,value
2022-12-23T00:01:27.953Z,97407.56
2022-12-23T00:03:58.863Z,97405.94
2022-12-23T00:06:27.765Z,97410.25
2022-12-23T00:08:59.479Z,97406.75
2022-12-23T00:11:28.489Z,97408.59
2022-12-23T00:14:20.564Z,97426.34
2022-12-23T00:16:51.643Z,97413.97
2022-12-23T00:19:20.391Z,97413.31
2022-12-23T00:21:49.508Z,97417.69
2022-12-23T00:24:19.601Z,97421.19
2022-12-23T00:26:48.151Z,97417.69
2022-12-23T00:29:16.688Z,97422.22
2022-12-23T00:31:45.658Z,97401.78
2022-12-23T00:34:14.241Z,97406.13
2022-12-23T00:36:43.012Z,97425.72
2022-12-23T00:39:30.596Z,97427.75
2022-12-23T00:42:18.054Z,97431.25
2022-12-23T00:44:46.796Z,97433.94
2022-12-23T00:47:36.323Z,97432.31
2022-12-23T00:50:04.249Z,97440.34
2022-12-23T00:52:32.793Z,97438.66
2022-12-23T00:55:01.435Z,97439.50
2022-12-23T00:57:31.498Z,97427.94
2022-12-23T01:00:00.154Z,97420.94
2022-12-23T01:02:46.228Z,97420.75
2022-12-23T01:05:34.460Z,97419.06
2022-12-23T01:08:03.339Z,97420.94
2022-12-23T01:10:32.290Z,97432.47
2022-12-23T01:13:02.329Z,97430.81
2022-12-23T01:15:31.404Z,97423.78
2022-12-23T01:18:00.113Z,97423.78
2022-12-23T01:20:28.709Z,97421.97
2022-12-23T01:22:57.351Z,97431.66
2022-12-23T01:25:26.394Z,97434.50
2022-12-23T01:27:54.925Z,97423.78
2022-12-23T01:30:25.045Z,97425.47
2022-12-23T01:32:54.033Z,97432.03
2022-12-23T01:35:22.741Z,97433.69
2022-12-23T01:37:51.339Z,97429.16
2022-12-23T01:40:20.215Z,97432.84
2022-12-23T01:42:47.817Z,97424.00
2022-12-23T01:45:18.716Z,97429.16
2022-12-23T01:47:51.855Z,97421.09
2022-12-23T01:50:24.039Z,97432.03
2022-12-23T01:53:04.582Z,97437.41
2022-12-23T01:55:39.419Z,97436.56
2022-12-23T01:58:12.078Z,97443.56
2022-12-23T02:00:58.893Z,97447.28
2022-12-23T02:03:44.469Z,97450.81
2022-12-23T02:06:36.882Z,97448.94
2022-12-23T02:09:19.037Z,97446.44
2022-12-23T02:12:39.422Z,97458.00
2022-12-23T02:15:47.713Z,97460.69
2022-12-23T02:18:39.343Z,97453.47
2022-12-23T02:21:19.056Z,97453.47
2022-12-23T02:24:54.764Z,97449.13
2022-12-23T02:27:31.883Z,97459.84
2022-12-23T02:30:38.402Z,97456.97
2022-12-23T02:33:35.713Z,97443.97
2022-12-23T02:36:19.651Z,97445.59
2022-12-23T02:38:54.379Z,97442.31
2022-12-23T02:41:27.095Z,97445.00
2022-12-23T02:43:59.129Z,97447.69
2022-12-23T02:46:33.183Z,97453.84
2022-12-23T02:49:04.816Z,97447.69
2022-12-23T02:51:35.683Z,97447.47
2022-12-23T02:54:06.826Z,97450.34
2022-12-23T02:56:35.934Z,97450.53
2022-12-23T02:59:07.850Z,97448.69
2022-12-23T03:01:38.028Z,97449.72
2022-12-23T03:04:07.193Z,97447.03
2022-12-23T03:06:40.187Z,97452.38
2022-12-23T03:09:08.959Z,97443.31
2022-12-23T03:11:46.134Z,97446.00
2022-12-23T03:14:37.763Z,97442.50
2022-12-23T03:17:18.977Z,97448.88
2022-12-23T03:19:52.303Z,97448.03
2022-12-23T03:22:25.581Z,97438.16
2022-12-23T03:24:57.190Z,97443.53
2022-12-23T03:27:28.265Z,97437.31
2022-12-23T03:29:59.114Z,97438.97
2022-12-23T03:32:30.453Z,97438.97
2022-12-23T03:35:00.488Z,97438.34
2022-12-23T03:37:29.770Z,97439.38
2022-12-23T03:40:02.853Z,97442.66
2022-12-23T03:42:34.421Z,97443.53
2022-12-23T03:47:59.239Z,97441.84
2022-12-23T03:50:27.850Z,97438.34
2022-12-23T03:52:59.291Z,97443.53
2022-12-23T03:55:31.305Z,97449.06
2022-12-23T03:58:02.812Z,97444.53
2022-12-23T04:00:35.122Z,97441.84
2022-12-23T04:03:10.693Z,97440.19
2022-12-23T04:05:40.902Z,97439.16
2022-12-23T04:08:14.309Z,97439.38
2022-12-23T04:10:42.846Z,97445.56
2022-12-23T04:13:11.698Z,97437.69
2022-12-23T04:15:41.149Z,97434.00
2022-12-23T04:18:11.634Z,97435.00
2022-12-23T04:20:40.378Z,97428.00
2022-12-23T04:23:09.035Z,97412.75
2022-12-23T04:25:37.640Z,97411.91
2022-12-23T04:28:06.604Z,97411.91
2022-12-23T04:30:35.324Z,97409.22
2022-12-23T04:33:04.076Z,97409.22
2022-12-23T04:35:34.517Z,97399.34
2022-12-23T04:38:03.113Z,97396.84
2022-12-23T04:40:31.742Z,97393.16
2022-12-23T04:43:00.383Z,97389.81
2022-12-23T04:45:28.971Z,97400.38
2022-12-23T04:47:57.776Z,97405.91
2022-12-23T04:50:26.609Z,97409.22
2022-12-23T04:52:56.544Z,97404.06
2022-12-23T04:55:25.419Z,97400.53
2022-12-23T04:57:54.058Z,97402.19
2022-12-23T05:00:23.393Z,97397.88
2022-12-23T05:02:52.023Z,97397.88
2022-12-23T05:05:21.170Z,97404.25
2022-12-23T05:07:50.778Z,97396.22
2022-12-23T05:10:20.968Z,97404.25
2022-12-23T05:12:49.602Z,97404.25
2022-12-23T05:15:18.422Z,97397.03
2022-12-23T05:17:46.990Z,97393.53
2022-12-23T05:20:16.065Z,97393.53
2022-12-23T05:22:44.567Z,97402.56
2022-12-23T05:25:13.263Z,97409.63
2022-12-23T05:27:43.458Z,97411.47
2022-12-23T05:30:13.078Z,97407.75
2022-12-23T05:32:41.746Z,97399.06
2022-12-23T05:35:11.332Z,97406.94
2022-12-23T05:37:39.948Z,97404.25
2022-12-23T05:40:11.460Z,97406.94
2022-12-23T05:42:40.367Z,97399.06
2022-12-23T05:45:11.250Z,97399.91
2022-12-23T05:47:39.872Z,97405.25
2022-12-23T05:50:10.613Z,97397.22
2022-12-23T05:52:39.297Z,97398.06
2022-12-23T05:55:10.064Z,97391.84
2022-12-23T05:57:38.744Z,97400.94
2022-12-23T06:00:11.542Z,97393.72
2022-12-23T06:02:40.412Z,97389.19
2022-12-23T06:05:10.797Z,97393.91
2022-12-23T06:07:39.551Z,97385.88
2022-12-23T06:10:10.142Z,97380.53
2022-12-23T06:12:39.150Z,97378.84
2022-12-23T06:15:10.808Z,97377.00
2022-12-23T06:17:39.579Z,97381.53
2022-12-23T06:20:17.962Z,97381.53
2022-12-23T06:22:49.014Z,97377.00
2022-12-23T06:25:17.779Z,97382.34
2022-12-23T06:27:46.553Z,97385.03
2022-12-23T06:30:16.885Z,97386.88
2022-12-23T06:32:45.398Z,97379.88
2022-12-23T06:35:13.939Z,97387.72
2022-12-23T06:37:42.853Z,97379.88
2022-12-23T06:40:13.138Z,97390.59
2022-12-23T06:42:41.806Z,97380.88
2022-12-23T06:45:12.028Z,97389.56
2022-12-23T06:47:42.029Z,97395.94
2022-12-23T06:50:11.677Z,97396.94
2022-12-23T06:52:40.324Z,97394.28
2022-12-23T06:55:09.706Z,97383.56
2022-12-23T06:57:38.334Z,97396.94
2022-12-23T07:00:08.385Z,97393.44
2022-12-23T07:02:37.173Z,97395.31
2022-12-23T07:05:08.030Z,97398.81
2022-12-23T07:07:36.572Z,97395.13
2022-12-23T07:10:06.191Z,97398.81
2022-12-23T07:12:34.877Z,97405.00
2022-12-23T07:15:03.441Z,97389.94
2022-12-23T07:17:32.450Z,97392.63
2022-12-23T07:20:01.229Z,97394.28
2022-12-23T07:22:31.151Z,97405.00
2022-12-23T07:24:59.771Z,97400.66
2022-12-23T07:27:30.556Z,97410.34
2022-12-23T07:29:59.105Z,97403.34
2022-12-23T07:32:27.642Z,97415.91
2022-12-23T07:34:56.234Z,97419.41
2022-12-23T07:37:24.819Z,97422.09
2022-12-23T07:39:54.729Z,97415.91
2022-12-23T07:42:44.173Z,97415.09
2022-12-23T07:45:13.627Z,97410.72
2022-12-23T07:47:42.356Z,97414.25
2022-12-23T07:50:11.745Z,97417.78
2022-12-23T07:52:40.533Z,97415.09
2022-12-23T07:55:11.300Z,97415.97
2022-12-23T07:57:40.775Z,97409.34
2022-12-23T08:00:12.031Z,97411.38
2022-12-23T08:02:40.909Z,97410.72
2022-12-23T08:05:10.475Z,97397.34
2022-12-23T08:07:39.097Z,97403.53
2022-12-23T08:10:10.850Z,97394.66
2022-12-23T08:12:39.663Z,97392.81
2022-12-23T08:15:10.492Z,97406.19
2022-12-23T08:17:39.133Z,97393.84
2022-12-23T08:20:09.896Z,97397.34
2022-12-23T08:22:41.417Z,97398.16
2022-12-23T08:25:12.006Z,97390.13
2022-12-23T08:27:40.636Z,97376.91
2022-12-23T08:30:11.329Z,97389.28
2022-12-23T08:32:40.171Z,97376.06
2022-12-23T08:35:09.831Z,97375.91
2022-12-23T08:37:39.408Z,97379.41
2022-12-23T08:40:11.296Z,97375.91
2022-12-23T08:42:39.932Z,97374.03
2022-12-23T08:45:10.191Z,97387.63
2022-12-23T08:47:38.752Z,97374.22
2022-12-23T08:50:09.028Z,97379.56
2022-12-23T08:52:37.746Z,97385.63
2022-12-23T08:55:07.159Z,97366.19
2022-12-23T08:57:37.291Z,97368.03
2022-12-23T09:00:07.763Z,97367.84
2022-12-23T09:02:36.566Z,97369.03
2022-12-23T09:05:05.937Z,97362.50
2022-12-23T09:07:34.810Z,97349.28
2022-12-23T09:10:03.510Z,97346.78
2022-12-23T09:12:32.381Z,97344.75
2022-12-23T09:15:02.630Z,97349.09
2022-12-23T09:17:31.296Z,97346.59
2022-12-23T09:20:00.006Z,97335.06
2022-12-23T09:22:28.656Z,97333.19
2022-12-23T09:25:04.627Z,97344.75
2022-12-23T09:27:34.010Z,97319.97
2022-12-23T09:30:04.162Z,97323.31
2022-12-23T09:32:33.767Z,97317.94
2022-12-23T09:35:02.459Z,97309.91
2022-12-23T09:37:31.142Z,97316.13
2022-12-23T09:39:59.920Z,97320.63
2022-12-23T09:42:46.280Z,97312.59
2022-12-23T09:45:25.871Z,97311.13
2022-12-23T09:47:55.350Z,97301.22
2022-12-23T09:50:28.853Z,97304.72
2022-12-23T09:53:01.870Z,97298.53
2022-12-23T09:55:37.541Z,97302.06
2022-12-23T09:58:09.719Z,97309.25
2022-12-23T10:00:42.822Z,97302.25
2022-12-23T10:03:21.163Z,97301.22
2022-12-23T10:05:58.783Z,97287.84
2022-12-23T10:08:31.759Z,97291.16
2022-12-23T10:11:02.204Z,97281.47
2022-12-23T10:13:36.103Z,97276.94
2022-12-23T10:16:09.683Z,97276.94
2022-12-23T10:18:51.357Z,97277.94
2022-12-23T10:21:26.040Z,97287.84
2022-12-23T10:23:55.602Z,97285.16
2022-12-23T10:26:26.352Z,97278.78
2022-12-23T10:29:01.525Z,97279.78
2022-12-23T10:31:42.175Z,97281.66
2022-12-23T10:34:17.403Z,97282.47
2022-12-23T10:36:51.864Z,97277.94
2022-12-23T10:39:28.684Z,97280.81
2022-12-23T10:42:05.346Z,97286.19
2022-12-23T10:45:05.565Z,97278.16
2022-12-23T10:47:47.115Z,97280.81
2022-12-23T10:50:36.229Z,97277.31
2022-12-23T10:53:09.174Z,97280.81
2022-12-23T10:55:38.404Z,97284.31
2022-12-23T10:58:09.217Z,97274.66
2022-12-23T11:00:42.344Z,97278.16
2022-12-23T11:03:18.596Z,97280.81
2022-12-23T11:05:48.116Z,97271.09
2022-12-23T11:08:16.721Z,97273.78
2022-12-23T11:10:45.298Z,97279.16
2022-12-23T11:13:25.187Z,97276.47
2022-12-23T11:15:53.869Z,97288.03
2022-12-23T11:18:24.021Z,97283.50
2022-12-23T11:21:15.169Z,97275.66
2022-12-23T11:23:43.901Z,97285.53
2022-12-23T11:26:14.800Z,97275.66
2022-12-23T11:28:50.506Z,97285.53
2022-12-23T11:31:26.684Z,97288.22
2022-12-23T11:34:00.801Z,97290.91
2022-12-23T11:36:30.255Z,97287.41
2022-12-23T11:39:04.046Z,97287.41
2022-12-23T11:41:37.649Z,97275.00
2022-12-23T11:44:09.760Z,97281.22
2022-12-23T11:46:38.458Z,97280.19
2022-12-23T11:49:19.063Z,97287.41
2022-12-23T11:51:49.669Z,97279.53
2022-12-23T11:54:20.176Z,97281.22
2022-12-23T11:56:51.630Z,97275.00
2022-12-23T11:59:39.019Z,97276.84
2022-12-23T12:02:14.425Z,97269.63
2022-12-23T12:04:44.603Z,97273.16
2022-12-23T12:07:14.313Z,97271.50
2022-12-23T12:09:43.627Z,97276.84
2022-12-23T12:12:16.419Z,97280.34
2022-12-23T12:14:46.488Z,97274.19
2022-12-23T12:17:18.726Z,97278.72
2022-12-23T12:19:58.429Z,97284.91
2022-12-23T12:22:34.272Z,97272.53
2022-12-23T12:25:10.615Z,97283.25
2022-12-23T12:27:40.231Z,97277.06
2022-12-23T12:30:15.386Z,97277.06
2022-12-23T12:32:51.490Z,97276.03
2022-12-23T12:35:24.175Z,97283.25
2022-12-23T12:37:54.988Z,97270.84
2022-12-23T12:40:29.591Z,97284.06
2022-12-23T12:43:00.707Z,97283.03
2022-12-23T12:45:34.601Z,97288.59
2022-12-23T12:48:35.420Z,97282.41
2022-12-23T12:51:12.496Z,97287.78
2022-12-23T12:53:43.804Z,97289.59
2022-12-23T12:56:26.052Z,97288.59
2022-12-23T12:58:54.794Z,97283.41
2022-12-23T13:01:38.432Z,97299.31
2022-12-23T13:04:36.335Z,97292.28
2022-12-23T13:07:09.973Z,97297.63
2022-12-23T13:09:45.568Z,97296.81
2022-12-23T13:12:18.739Z,97308.34
2022-12-23T13:14:55.412Z,97304.03
2022-12-23T13:17:26.616Z,97301.34
2022-12-23T13:19:58.240Z,97298.66
2022-12-23T13:22:31.062Z,97307.53
2022-12-23T13:25:03.899Z,97305.88
2022-12-23T13:27:34.615Z,97305.06
2022-12-23T13:30:07.200Z,97315.78
2022-12-23T13:33:08.210Z,97312.28
2022-12-23T13:35:47.107Z,97314.97
2022-12-23T13:38:31.807Z,97326.50
2022-12-23T13:41:06.004Z,97325.47
2022-12-23T13:43:43.068Z,97332.69
2022-12-23T13:46:19.804Z,97335.53
2022-12-23T13:48:55.211Z,97333.50
2022-12-23T13:51:28.102Z,97334.53
2022-12-23T13:54:04.868Z,97326.50
2022-12-23T13:56:39.271Z,97331.03
2022-12-23T13:59:10.787Z,97326.66
2022-12-23T14:01:47.281Z,97321.13
2022-12-23T14:04:33.362Z,97326.50
2022-12-23T14:07:04.208Z,97325.66
2022-12-23T14:09:37.261Z,97328.34
2022-12-23T14:12:19.835Z,97324.81
2022-12-23T14:15:16.886Z,97327.50
2022-12-23T14:17:52.714Z,97329.34
2022-12-23T14:20:30.570Z,97343.56
2022-12-23T14:23:07.448Z,97338.41
2022-12-23T14:26:04.438Z,97335.53
2022-12-23T14:29:05.174Z,97342.75
2022-12-23T14:31:38.423Z,97328.53
2022-12-23T14:34:24.282Z,97344.59
2022-12-23T14:37:32.886Z,97342.94
2022-12-23T14:40:24.272Z,97342.94
2022-12-23T14:43:32.062Z,97332.22
2022-12-23T14:46:01.311Z,97331.19
2022-12-23T14:49:38.237Z,97345.41
2022-12-23T14:52:46.495Z,97338.41
2022-12-23T14:55:46.831Z,97334.72
2022-12-23T14:58:58.369Z,97330.56
2022-12-23T15:01:35.181Z,97348.31
2022-12-23T15:04:10.170Z,97349.97
2022-12-23T15:06:41.039Z,97337.59
2022-12-23T15:09:10.807Z,97349.31
2022-12-23T15:11:39.668Z,97346.63
2022-12-23T15:14:14.752Z,97341.09
2022-12-23T15:16:46.536Z,97335.91
2022-12-23T15:19:21.879Z,97348.50
2022-12-23T15:21:59.270Z,97359.19
2022-12-23T15:24:29.642Z,97362.69
2022-12-23T15:27:28.696Z,97352.81
2022-12-23T15:29:53.272Z,97355.69
2022-12-23T15:32:24.503Z,97361.06
2022-12-23T15:34:53.694Z,97363.53
2022-12-23T15:37:27.316Z,97352.00
2022-12-23T15:40:09.634Z,97358.16
2022-12-23T15:42:42.036Z,97350.34
2022-12-23T15:45:36.238Z,97361.06
2022-12-23T15:48:06.457Z,97350.34
2022-12-23T15:50:41.748Z,97355.69
2022-12-23T15:53:11.806Z,97349.69
2022-12-23T15:55:41.852Z,97353.19
2022-12-23T15:58:18.441Z,97353.84
2022-12-23T16:00:54.924Z,97361.06
2022-12-23T16:03:28.257Z,97345.97
2022-12-23T16:06:06.724Z,97348.66
2022-12-23T16:08:35.727Z,97353.03
2022-12-23T16:11:14.882Z,97349.50
2022-12-23T16:13:58.408Z,97354.03
2022-12-23T16:16:41.651Z,97350.34
2022-12-23T16:19:43.640Z,97350.50
2022-12-23T16:22:23.964Z,97348.66
2022-12-23T16:25:03.202Z,97345.16
2022-12-23T16:27:37.934Z,97345.16
2022-12-23T16:30:17.485Z,97348.66
2022-12-23T16:32:55.379Z,97345.16
2022-12-23T16:35:37.153Z,97336.31
2022-12-23T16:38:16.016Z,97334.66
2022-12-23T16:40:47.485Z,97329.09
2022-12-23T16:43:16.583Z,97328.25
2022-12-23T16:45:45.718Z,97337.13
2022-12-23T16:48:21.306Z,97321.03
2022-12-23T16:50:50.632Z,97320.41
2022-12-23T16:53:19.597Z,97331.75
2022-12-23T16:55:53.771Z,97325.59
2022-12-23T16:58:26.159Z,97316.72
2022-12-23T17:00:55.391Z,97330.94
2022-12-23T17:03:27.358Z,97338.16
2022-12-23T17:05:56.655Z,97338.97
2022-12-23T17:08:25.830Z,97338.16
2022-12-23T17:10:57.671Z,97324.75
2022-12-23T17:13:26.378Z,97332.78
2022-12-23T17:15:55.115Z,97323.94
2022-12-23T17:18:25.202Z,97333.63
2022-12-23T17:20:54.488Z,97333.78
2022-12-23T17:23:28.473Z,97332.97
2022-12-23T17:25:58.195Z,97340.00
2022-12-23T17:28:30.654Z,97345.16
2022-12-23T17:31:00.623Z,97347.84
2022-12-23T17:33:33.457Z,97345.16
2022-12-23T17:36:04.767Z,97352.38
2022-12-23T17:38:33.890Z,97353.19
2022-12-23T17:41:03.152Z,97354.41
2022-12-23T17:43:32.774Z,97356.06
2022-12-23T17:46:02.085Z,97355.22
2022-12-23T17:48:33.267Z,97352.63
2022-12-23T17:51:02.019Z,97356.97
2022-12-23T17:53:31.364Z,97353.03
2022-12-23T17:56:00.633Z,97357.72
2022-12-23T17:58:29.769Z,97358.75
2022-12-23T18:00:58.832Z,97356.06
2022-12-23T18:03:27.837Z,97356.91
2022-12-23T18:06:02.079Z,97357.06
2022-12-23T18:08:31.818Z,97356.06
2022-12-23T18:11:05.501Z,97360.59
2022-12-23T18:13:34.717Z,97357.06
2022-12-23T18:16:03.433Z,97362.44
2022-12-23T18:18:41.951Z,97372.16
2022-12-23T18:21:21.532Z,97367.78
2022-12-23T18:23:50.184Z,97358.94
2022-12-23T18:26:18.838Z,97361.44
2022-12-23T18:28:47.649Z,97365.75
2022-12-23T18:31:17.543Z,97366.78
2022-12-23T18:33:46.597Z,97373.97
2022-12-23T18:36:22.828Z,97370.47
2022-12-23T18:38:52.304Z,97371.28
2022-12-23T18:41:20.953Z,97375.81
2022-12-23T18:43:49.536Z,97373.16
2022-12-23T18:46:20.277Z,97378.50
2022-12-23T18:48:49.136Z,97361.59
2022-12-23T18:51:20.750Z,97368.00
2022-12-23T18:53:49.647Z,97367.16
2022-12-23T18:56:20.152Z,97371.50
2022-12-23T18:58:48.892Z,97365.31
2022-12-23T19:01:18.906Z,97359.97
2022-12-23T19:03:47.614Z,97367.78
2022-12-23T19:06:17.927Z,97369.66
2022-12-23T19:08:46.846Z,97365.94
2022-12-23T19:11:17.421Z,97366.16
2022-12-23T19:13:46.070Z,97362.63
2022-12-23T19:16:15.620Z,97368.63
2022-12-23T19:18:44.442Z,97363.47
2022-12-23T19:21:13.153Z,97366.97
2022-12-23T19:23:43.251Z,97360.13
2022-12-23T19:26:12.994Z,97367.16
2022-12-23T19:28:42.482Z,97362.63
2022-12-23T19:31:11.742Z,97367.16
2022-12-23T19:33:40.567Z,97362.81
2022-12-23T19:36:12.258Z,97361.81
2022-12-23T19:38:42.781Z,97357.47
2022-12-23T19:41:11.449Z,97351.09
2022-12-23T19:43:40.201Z,97350.25
2022-12-23T19:46:10.208Z,97353.78
2022-12-23T19:48:39.019Z,97354.59
2022-12-23T19:51:09.057Z,97367.16
2022-12-23T19:53:37.894Z,97369.00
2022-12-23T19:56:09.964Z,97366.53
2022-12-23T19:58:41.747Z,97370.03
2022-12-23T20:01:12.343Z,97367.34
2022-12-23T20:03:41.360Z,97369.00
2022-12-23T20:06:15.316Z,97361.81
2022-12-23T20:08:44.754Z,97349.41
2022-12-23T20:11:16.456Z,97339.53
2022-12-23T20:13:45.099Z,97339.53
2022-12-23T20:16:14.574Z,97328.00
2022-12-23T20:18:43.356Z,97314.81
2022-12-23T20:21:12.090Z,97310.28
2022-12-23T20:23:40.818Z,97311.09
2022-12-23T20:26:09.510Z,97317.28
2022-12-23T20:28:39.716Z,97311.09
2022-12-23T20:31:10.081Z,97307.41
2022-12-23T20:33:39.281Z,97291.53
2022-12-23T20:36:09.379Z,97295.84
2022-12-23T20:38:38.834Z,97293.38
2022-12-23T20:41:07.617Z,97294.22
2022-12-23T20:43:36.346Z,97294.22
2022-12-23T20:46:07.509Z,97294.38
2022-12-23T20:48:36.594Z,97295.22
2022-12-23T20:51:06.007Z,97302.25
2022-12-23T20:53:34.575Z,97292.53
2022-12-23T20:56:04.499Z,97288.03
2022-12-23T20:58:50.618Z,97288.19
2022-12-23T21:01:20.845Z,97293.38
2022-12-23T21:03:49.502Z,97283.50
2022-12-23T21:06:18.377Z,97292.53
2022-12-23T21:08:47.037Z,97286.34
2022-12-23T21:11:15.910Z,97282.84
2022-12-23T21:13:44.504Z,97279.13
2022-12-23T21:16:13.669Z,97276.47
2022-12-23T21:18:44.379Z,97280.16
2022-12-23T21:21:13.042Z,97283.50
2022-12-23T21:23:42.576Z,97284.69
2022-12-23T21:26:13.805Z,97273.16
2022-12-23T21:28:43.383Z,97277.50
2022-12-23T21:31:12.056Z,97276.66
2022-12-23T21:33:42.160Z,97275.63
2022-12-23T21:36:19.822Z,97288.19
2022-12-23T21:38:49.931Z,97285.53
2022-12-23T21:41:21.762Z,97284.69
2022-12-23T21:43:50.899Z,97281.19
2022-12-23T21:46:24.213Z,97277.50
2022-12-23T21:48:53.691Z,97269.47
2022-12-23T21:51:25.316Z,97273.16
2022-12-23T21:53:55.386Z,97276.66
2022-12-23T21:56:25.753Z,97270.50
2022-12-23T21:58:56.896Z,97273.16
2022-12-23T22:01:25.765Z,97269.47
2022-12-23T22:03:54.943Z,97276.66
2022-12-23T22:06:26.398Z,97270.50
2022-12-23T22:08:55.292Z,97265.13
2022-12-23T22:11:25.190Z,97269.47
2022-12-23T22:13:53.845Z,97270.50
2022-12-23T22:16:24.031Z,97275.63
2022-12-23T22:18:53.154Z,97268.63
2022-12-23T22:21:25.078Z,97268.63
2022-12-23T22:23:54.175Z,97260.59
2022-12-23T22:26:26.045Z,97263.44
2022-12-23T22:28:55.767Z,97266.13
2022-12-23T22:31:30.564Z,97262.44
2022-12-23T22:33:59.234Z,97257.09
2022-12-23T22:36:29.253Z,97255.41
2022-12-23T22:38:58.960Z,97259.94
2022-12-23T22:41:29.091Z,97251.91
2022-12-23T22:43:57.796Z,97255.41
2022-12-23T22:46:26.636Z,97254.78
2022-12-23T22:48:56.459Z,97259.94
2022-12-23T22:51:26.694Z,97243.88
2022-12-23T22:53:56.977Z,97249.25
2022-12-23T22:56:26.405Z,97250.06
2022-12-23T22:58:55.141Z,97245.53
2022-12-23T23:01:28.779Z,97244.69
2022-12-23T23:03:59.301Z,97237.69
2022-12-23T23:06:29.488Z,97247.38
2022-12-23T23:08:59.581Z,97253.56
2022-12-23T23:11:28.851Z,97256.25
2022-12-23T23:13:57.515Z,97259.13
2022-12-23T23:16:26.621Z,97243.88
2022-12-23T23:18:55.617Z,97249.25
2022-12-23T23:21:24.247Z,97236.88
2022-12-23T23:23:52.871Z,97235.84
2022-12-23T23:26:26.917Z,97233.16
2022-12-23T23:28:55.980Z,97232.34
2022-12-23T23:31:42.535Z,97224.31
2022-12-23T23:34:12.442Z,97217.28
2022-12-23T23:36:41.163Z,97209.25
2022-12-23T23:39:09.981Z,97209.06
2022-12-23T23:41:41.068Z,97210.91
2022-12-23T23:44:09.820Z,97205.56
2022-12-23T23:46:38.693Z,97203.06
2022-12-23T23:49:07.333Z,97189.50
2022-12-23T23:51:35.902Z,97185.13
2022-12-23T23:54:04.464Z,97182.47
2022-12-23T23:56:38.298Z,97186.81
2022-12-23T23:59:09.338Z,97191.34
